sensor_id;sensor_type;location;lat;lon;timestamp;P1;durP1;ratioP1;P2;durP2;ratioP2
11211;SDS011;5663;50.864;12.096;2023-04-24T00:00:36;3.03;;;2.30;;
11211;SDS011;5663;50.864;12.096;2023-04-24T00:03:11;3.20;;;2.17;;
11211;SDS011;5663;50.864;12.096;2023-04-24T00:05:42;2.73;;;2.50;;
11211;SDS011;5663;50.864;12.096;2023-04-24T00:08:23;5.53;;;2.70;;
11211;SDS011;5663;50.864;12.096;2023-04-24T00:11:00;2.67;;;2.40;;
11211;SDS011;5663;50.864;12.096;2023-04-24T00:13:30;4.23;;;2.70;;
11211;SDS011;5663;50.864;12.096;2023-04-24T00:15:58;2.77;;;2.30;;
11211;SDS011;5663;50.864;12.096;2023-04-24T00:18:27;4.53;;;2.30;;
11211;SDS011;5663;50.864;12.096;2023-04-24T00:20:56;3.80;;;2.20;;
11211;SDS011;5663;50.864;12.096;2023-04-24T00:23:28;2.87;;;2.20;;
11211;SDS011;5663;50.864;12.096;2023-04-24T00:25:57;3.17;;;2.10;;
11211;SDS011;5663;50.864;12.096;2023-04-24T00:28:29;3.80;;;2.47;;
11211;SDS011;5663;50.864;12.096;2023-04-24T00:31:02;3.60;;;2.80;;
11211;SDS011;5663;50.864;12.096;2023-04-24T00:33:31;2.53;;;2.20;;
11211;SDS011;5663;50.864;12.096;2023-04-24T00:38:57;1.87;;;1.77;;
11211;SDS011;5663;50.864;12.096;2023-04-24T00:41:28;2.87;;;2.00;;
11211;SDS011;5663;50.864;12.096;2023-04-24T00:43:59;3.30;;;2.43;;
11211;SDS011;5663;50.864;12.096;2023-04-24T00:46:29;3.57;;;2.30;;
11211;SDS011;5663;50.864;12.096;2023-04-24T00:49:02;4.13;;;2.10;;
11211;SDS011;5663;50.864;12.096;2023-04-24T00:51:36;6.60;;;2.23;;
11211;SDS011;5663;50.864;12.096;2023-04-24T00:54:10;3.10;;;2.27;;
11211;SDS011;5663;50.864;12.096;2023-04-24T00:56:41;3.83;;;2.17;;
11211;SDS011;5663;50.864;12.096;2023-04-24T00:59:26;5.43;;;2.20;;
11211;SDS011;5663;50.864;12.096;2023-04-24T01:02:01;4.67;;;2.17;;
11211;SDS011;5663;50.864;12.096;2023-04-24T01:04:37;3.23;;;1.90;;
11211;SDS011;5663;50.864;12.096;2023-04-24T01:07:08;1.90;;;1.70;;
11211;SDS011;5663;50.864;12.096;2023-04-24T01:09:38;2.10;;;1.90;;
11211;SDS011;5663;50.864;12.096;2023-04-24T01:12:08;2.63;;;1.87;;
11211;SDS011;5663;50.864;12.096;2023-04-24T01:14:38;2.73;;;1.97;;
11211;SDS011;5663;50.864;12.096;2023-04-24T01:17:07;3.30;;;1.60;;
11211;SDS011;5663;50.864;12.096;2023-04-24T01:19:37;2.87;;;1.90;;
11211;SDS011;5663;50.864;12.096;2023-04-24T01:22:10;2.30;;;1.90;;
11211;SDS011;5663;50.864;12.096;2023-04-24T01:24:39;2.40;;;1.70;;
11211;SDS011;5663;50.864;12.096;2023-04-24T01:27:09;1.93;;;1.77;;
11211;SDS011;5663;50.864;12.096;2023-04-24T01:29:37;1.67;;;1.57;;
11211;SDS011;5663;50.864;12.096;2023-04-24T01:32:07;2.20;;;2.00;;
11211;SDS011;5663;50.864;12.096;2023-04-24T01:34:46;1.93;;;1.80;;
11211;SDS011;5663;50.864;12.096;2023-04-24T01:37:17;2.47;;;1.60;;
11211;SDS011;5663;50.864;12.096;2023-04-24T01:39:45;2.00;;;1.70;;
11211;SDS011;5663;50.864;12.096;2023-04-24T01:42:16;2.63;;;1.80;;
11211;SDS011;5663;50.864;12.096;2023-04-24T01:44:44;2.40;;;1.70;;
11211;SDS011;5663;50.864;12.096;2023-04-24T01:47:13;6.57;;;1.90;;
11211;SDS011;5663;50.864;12.096;2023-04-24T01:49:42;3.80;;;1.90;;
11211;SDS011;5663;50.864;12.096;2023-04-24T01:52:12;3.87;;;1.70;;
11211;SDS011;5663;50.864;12.096;2023-04-24T01:54:42;2.93;;;2.03;;
11211;SDS011;5663;50.864;12.096;2023-04-24T01:57:13;4.07;;;1.90;;
11211;SDS011;5663;50.864;12.096;2023-04-24T01:59:41;2.63;;;2.00;;
11211;SDS011;5663;50.864;12.096;2023-04-24T02:02:10;2.27;;;1.90;;
11211;SDS011;5663;50.864;12.096;2023-04-24T02:04:37;2.57;;;1.73;;
11211;SDS011;5663;50.864;12.096;2023-04-24T02:07:07;2.37;;;2.07;;
11211;SDS011;5663;50.864;12.096;2023-04-24T02:09:36;2.30;;;2.10;;
11211;SDS011;5663;50.864;12.096;2023-04-24T02:12:06;2.50;;;2.30;;
11211;SDS011;5663;50.864;12.096;2023-04-24T02:14:35;4.40;;;2.37;;
11211;SDS011;5663;50.864;12.096;2023-04-24T02:17:03;6.07;;;1.93;;
11211;SDS011;5663;50.864;12.096;2023-04-24T02:19:32;3.03;;;1.90;;
11211;SDS011;5663;50.864;12.096;2023-04-24T02:22:01;2.83;;;2.27;;
11211;SDS011;5663;50.864;12.096;2023-04-24T02:24:28;2.17;;;1.97;;
11211;SDS011;5663;50.864;12.096;2023-04-24T02:26:56;2.57;;;1.70;;
11211;SDS011;5663;50.864;12.096;2023-04-24T02:29:26;2.53;;;1.80;;
11211;SDS011;5663;50.864;12.096;2023-04-24T02:31:54;2.30;;;1.73;;
11211;SDS011;5663;50.864;12.096;2023-04-24T02:34:23;1.90;;;1.70;;
11211;SDS011;5663;50.864;12.096;2023-04-24T02:36:51;2.07;;;1.80;;
11211;SDS011;5663;50.864;12.096;2023-04-24T02:39:19;4.07;;;1.80;;
11211;SDS011;5663;50.864;12.096;2023-04-24T02:41:48;3.77;;;2.13;;
11211;SDS011;5663;50.864;12.096;2023-04-24T02:44:16;2.00;;;1.80;;
11211;SDS011;5663;50.864;12.096;2023-04-24T02:46:47;2.03;;;1.80;;
11211;SDS011;5663;50.864;12.096;2023-04-24T02:49:17;3.33;;;2.00;;
11211;SDS011;5663;50.864;12.096;2023-04-24T02:51:44;3.97;;;1.93;;
11211;SDS011;5663;50.864;12.096;2023-04-24T02:54:12;2.60;;;1.90;;
11211;SDS011;5663;50.864;12.096;2023-04-24T02:56:40;3.13;;;1.83;;
11211;SDS011;5663;50.864;12.096;2023-04-24T02:59:08;2.20;;;2.00;;
11211;SDS011;5663;50.864;12.096;2023-04-24T03:01:36;2.50;;;2.00;;
11211;SDS011;5663;50.864;12.096;2023-04-24T03:04:06;2.37;;;2.17;;
11211;SDS011;5663;50.864;12.096;2023-04-24T03:06:34;3.33;;;2.23;;
11211;SDS011;5663;50.864;12.096;2023-04-24T03:09:03;3.03;;;2.20;;
11211;SDS011;5663;50.864;12.096;2023-04-24T03:11:32;2.93;;;2.30;;
11211;SDS011;5663;50.864;12.096;2023-04-24T03:14:01;2.43;;;2.20;;
11211;SDS011;5663;50.864;12.096;2023-04-24T03:16:29;2.50;;;2.23;;
11211;SDS011;5663;50.864;12.096;2023-04-24T03:18:56;4.20;;;2.30;;
11211;SDS011;5663;50.864;12.096;2023-04-24T03:21:27;3.90;;;2.20;;
11211;SDS011;5663;50.864;12.096;2023-04-24T03:23:55;2.13;;;1.93;;
11211;SDS011;5663;50.864;12.096;2023-04-24T03:26:22;2.63;;;2.43;;
11211;SDS011;5663;50.864;12.096;2023-04-24T03:28:50;3.27;;;2.10;;
11211;SDS011;5663;50.864;12.096;2023-04-24T03:31:22;2.47;;;1.93;;
11211;SDS011;5663;50.864;12.096;2023-04-24T03:33:51;2.37;;;2.10;;
11211;SDS011;5663;50.864;12.096;2023-04-24T03:36:20;3.60;;;2.00;;
11211;SDS011;5663;50.864;12.096;2023-04-24T03:38:52;3.17;;;2.23;;
11211;SDS011;5663;50.864;12.096;2023-04-24T03:41:20;4.40;;;2.10;;
11211;SDS011;5663;50.864;12.096;2023-04-24T03:43:49;3.20;;;2.40;;
11211;SDS011;5663;50.864;12.096;2023-04-24T03:46:19;2.40;;;2.20;;
11211;SDS011;5663;50.864;12.096;2023-04-24T03:48:46;2.73;;;2.00;;
11211;SDS011;5663;50.864;12.096;2023-04-24T03:51:14;2.97;;;1.97;;
11211;SDS011;5663;50.864;12.096;2023-04-24T03:53:42;4.13;;;2.47;;
11211;SDS011;5663;50.864;12.096;2023-04-24T03:56:11;2.60;;;2.20;;
11211;SDS011;5663;50.864;12.096;2023-04-24T03:58:40;4.33;;;2.40;;
11211;SDS011;5663;50.864;12.096;2023-04-24T04:01:09;2.53;;;2.23;;
11211;SDS011;5663;50.864;12.096;2023-04-24T04:03:37;2.43;;;2.23;;
11211;SDS011;5663;50.864;12.096;2023-04-24T04:06:06;3.67;;;2.73;;
11211;SDS011;5663;50.864;12.096;2023-04-24T04:08:36;3.93;;;2.30;;
11211;SDS011;5663;50.864;12.096;2023-04-24T04:11:05;5.10;;;2.80;;
11211;SDS011;5663;50.864;12.096;2023-04-24T04:13:34;3.83;;;2.17;;
11211;SDS011;5663;50.864;12.096;2023-04-24T04:16:04;2.73;;;2.30;;
11211;SDS011;5663;50.864;12.096;2023-04-24T04:18:36;3.37;;;2.70;;
11211;SDS011;5663;50.864;12.096;2023-04-24T04:21:05;3.83;;;2.60;;
11211;SDS011;5663;50.864;12.096;2023-04-24T04:23:34;4.03;;;2.93;;
11211;SDS011;5663;50.864;12.096;2023-04-24T04:26:03;5.20;;;2.67;;
11211;SDS011;5663;50.864;12.096;2023-04-24T04:28:31;2.93;;;2.63;;
11211;SDS011;5663;50.864;12.096;2023-04-24T04:31:00;3.13;;;2.57;;
11211;SDS011;5663;50.864;12.096;2023-04-24T04:33:28;2.90;;;2.50;;
11211;SDS011;5663;50.864;12.096;2023-04-24T04:35:56;5.57;;;2.20;;
11211;SDS011;5663;50.864;12.096;2023-04-24T04:38:25;4.57;;;2.60;;
11211;SDS011;5663;50.864;12.096;2023-04-24T04:40:56;3.70;;;2.40;;
11211;SDS011;5663;50.864;12.096;2023-04-24T04:43:23;3.20;;;2.60;;
11211;SDS011;5663;50.864;12.096;2023-04-24T04:45:51;2.97;;;2.63;;
11211;SDS011;5663;50.864;12.096;2023-04-24T04:48:22;6.50;;;2.63;;
11211;SDS011;5663;50.864;12.096;2023-04-24T04:50:53;3.43;;;2.50;;
11211;SDS011;5663;50.864;12.096;2023-04-24T04:53:21;4.30;;;2.60;;
11211;SDS011;5663;50.864;12.096;2023-04-24T04:55:53;4.43;;;3.00;;
11211;SDS011;5663;50.864;12.096;2023-04-24T04:58:20;3.33;;;2.57;;
11211;SDS011;5663;50.864;12.096;2023-04-24T05:00:49;5.37;;;2.70;;
11211;SDS011;5663;50.864;12.096;2023-04-24T05:03:18;5.00;;;2.97;;
11211;SDS011;5663;50.864;12.096;2023-04-24T05:05:49;2.93;;;2.60;;
11211;SDS011;5663;50.864;12.096;2023-04-24T05:08:19;5.10;;;2.63;;
11211;SDS011;5663;50.864;12.096;2023-04-24T05:10:47;3.87;;;2.83;;
11211;SDS011;5663;50.864;12.096;2023-04-24T05:13:16;2.70;;;2.50;;
11211;SDS011;5663;50.864;12.096;2023-04-24T05:15:46;3.00;;;2.70;;
11211;SDS011;5663;50.864;12.096;2023-04-24T05:18:14;3.50;;;2.90;;
11211;SDS011;5663;50.864;12.096;2023-04-24T05:20:43;3.53;;;2.60;;
11211;SDS011;5663;50.864;12.096;2023-04-24T05:23:19;3.23;;;2.73;;
11211;SDS011;5663;50.864;12.096;2023-04-24T05:25:49;4.67;;;2.77;;
11211;SDS011;5663;50.864;12.096;2023-04-24T05:28:21;4.83;;;2.70;;
11211;SDS011;5663;50.864;12.096;2023-04-24T05:30:49;5.37;;;4.53;;
11211;SDS011;5663;50.864;12.096;2023-04-24T05:33:17;4.40;;;4.00;;
11211;SDS011;5663;50.864;12.096;2023-04-24T05:35:49;4.97;;;3.07;;
11211;SDS011;5663;50.864;12.096;2023-04-24T05:38:20;4.83;;;3.00;;
11211;SDS011;5663;50.864;12.096;2023-04-24T05:40:57;2.97;;;2.53;;
11211;SDS011;5663;50.864;12.096;2023-04-24T05:43:25;2.47;;;2.23;;
11211;SDS011;5663;50.864;12.096;2023-04-24T05:45:53;3.80;;;2.13;;
11211;SDS011;5663;50.864;12.096;2023-04-24T05:48:21;3.37;;;2.37;;
11211;SDS011;5663;50.864;12.096;2023-04-24T05:50:49;3.73;;;2.67;;
11211;SDS011;5663;50.864;12.096;2023-04-24T05:53:23;7.27;;;2.20;;
11211;SDS011;5663;50.864;12.096;2023-04-24T05:55:51;2.90;;;2.20;;
11211;SDS011;5663;50.864;12.096;2023-04-24T05:58:25;3.27;;;2.33;;
11211;SDS011;5663;50.864;12.096;2023-04-24T06:01:03;5.30;;;2.00;;
11211;SDS011;5663;50.864;12.096;2023-04-24T06:04:05;2.50;;;1.90;;
11211;SDS011;5663;50.864;12.096;2023-04-24T06:06:34;2.80;;;2.07;;
11211;SDS011;5663;50.864;12.096;2023-04-24T06:09:05;2.03;;;1.70;;
11211;SDS011;5663;50.864;12.096;2023-04-24T06:11:35;6.47;;;2.30;;
11211;SDS011;5663;50.864;12.096;2023-04-24T06:14:05;4.70;;;1.80;;
11211;SDS011;5663;50.864;12.096;2023-04-24T06:16:33;3.33;;;1.90;;
11211;SDS011;5663;50.864;12.096;2023-04-24T06:19:02;4.57;;;1.70;;
11211;SDS011;5663;50.864;12.096;2023-04-24T06:21:31;4.20;;;1.50;;
11211;SDS011;5663;50.864;12.096;2023-04-24T06:23:59;4.47;;;1.73;;
11211;SDS011;5663;50.864;12.096;2023-04-24T06:26:31;3.23;;;1.77;;
11211;SDS011;5663;50.864;12.096;2023-04-24T06:29:00;3.00;;;1.50;;
11211;SDS011;5663;50.864;12.096;2023-04-24T06:31:30;3.40;;;1.80;;
11211;SDS011;5663;50.864;12.096;2023-04-24T06:34:04;3.50;;;1.47;;
11211;SDS011;5663;50.864;12.096;2023-04-24T06:36:34;2.30;;;1.80;;
11211;SDS011;5663;50.864;12.096;2023-04-24T06:39:04;5.27;;;1.50;;
11211;SDS011;5663;50.864;12.096;2023-04-24T06:41:35;3.03;;;2.00;;
11211;SDS011;5663;50.864;12.096;2023-04-24T06:44:03;3.97;;;1.70;;
11211;SDS011;5663;50.864;12.096;2023-04-24T06:46:33;5.00;;;1.93;;
11211;SDS011;5663;50.864;12.096;2023-04-24T06:49:02;3.00;;;1.50;;
11211;SDS011;5663;50.864;12.096;2023-04-24T06:51:29;4.07;;;1.67;;
11211;SDS011;5663;50.864;12.096;2023-04-24T06:53:58;3.30;;;1.67;;
11211;SDS011;5663;50.864;12.096;2023-04-24T06:56:27;2.97;;;1.67;;
11211;SDS011;5663;50.864;12.096;2023-04-24T06:58:57;2.93;;;1.73;;
11211;SDS011;5663;50.864;12.096;2023-04-24T07:01:26;1.93;;;1.53;;
11211;SDS011;5663;50.864;12.096;2023-04-24T07:03:54;6.27;;;1.87;;
11211;SDS011;5663;50.864;12.096;2023-04-24T07:06:23;3.53;;;1.80;;
11211;SDS011;5663;50.864;12.096;2023-04-24T07:08:51;2.13;;;1.53;;
11211;SDS011;5663;50.864;12.096;2023-04-24T07:11:19;6.10;;;1.50;;
11211;SDS011;5663;50.864;12.096;2023-04-24T07:13:48;3.67;;;2.03;;
11211;SDS011;5663;50.864;12.096;2023-04-24T07:16:18;2.70;;;1.90;;
11211;SDS011;5663;50.864;12.096;2023-04-24T07:18:46;2.83;;;1.87;;
11211;SDS011;5663;50.864;12.096;2023-04-24T07:21:15;2.37;;;1.70;;
11211;SDS011;5663;50.864;12.096;2023-04-24T07:23:43;2.67;;;1.63;;
11211;SDS011;5663;50.864;12.096;2023-04-24T07:26:10;3.40;;;1.67;;
11211;SDS011;5663;50.864;12.096;2023-04-24T07:28:40;3.27;;;1.43;;
11211;SDS011;5663;50.864;12.096;2023-04-24T07:31:10;1.30;;;1.20;;
11211;SDS011;5663;50.864;12.096;2023-04-24T07:33:41;3.60;;;1.30;;
11211;SDS011;5663;50.864;12.096;2023-04-24T07:36:11;4.00;;;1.27;;
11211;SDS011;5663;50.864;12.096;2023-04-24T07:38:42;1.53;;;1.30;;
11211;SDS011;5663;50.864;12.096;2023-04-24T07:41:10;2.50;;;1.03;;
11211;SDS011;5663;50.864;12.096;2023-04-24T07:43:39;2.00;;;1.13;;
11211;SDS011;5663;50.864;12.096;2023-04-24T07:46:07;4.33;;;0.93;;
11211;SDS011;5663;50.864;12.096;2023-04-24T07:48:39;1.93;;;1.00;;
11211;SDS011;5663;50.864;12.096;2023-04-24T07:51:12;4.73;;;1.40;;
11211;SDS011;5663;50.864;12.096;2023-04-24T07:53:39;2.27;;;0.90;;
11211;SDS011;5663;50.864;12.096;2023-04-24T07:56:08;3.80;;;1.30;;
11211;SDS011;5663;50.864;12.096;2023-04-24T07:58:36;2.70;;;0.97;;
11211;SDS011;5663;50.864;12.096;2023-04-24T08:01:04;1.93;;;1.17;;
11211;SDS011;5663;50.864;12.096;2023-04-24T08:03:33;4.10;;;0.93;;
11211;SDS011;5663;50.864;12.096;2023-04-24T08:06:01;1.57;;;0.90;;
11211;SDS011;5663;50.864;12.096;2023-04-24T08:08:32;1.00;;;0.90;;
11211;SDS011;5663;50.864;12.096;2023-04-24T08:11:00;6.87;;;1.30;;
11211;SDS011;5663;50.864;12.096;2023-04-24T08:13:28;5.00;;;0.90;;
11211;SDS011;5663;50.864;12.096;2023-04-24T08:15:58;1.40;;;0.80;;
11211;SDS011;5663;50.864;12.096;2023-04-24T08:18:26;1.93;;;0.90;;
11211;SDS011;5663;50.864;12.096;2023-04-24T08:20:54;1.83;;;0.80;;
11211;SDS011;5663;50.864;12.096;2023-04-24T08:23:27;2.30;;;0.87;;
11211;SDS011;5663;50.864;12.096;2023-04-24T08:25:57;0.70;;;0.70;;
11211;SDS011;5663;50.864;12.096;2023-04-24T08:28:25;6.13;;;0.80;;
11211;SDS011;5663;50.864;12.096;2023-04-24T08:30:52;1.53;;;0.80;;
11211;SDS011;5663;50.864;12.096;2023-04-24T08:33:21;0.77;;;0.77;;
11211;SDS011;5663;50.864;12.096;2023-04-24T08:35:49;0.87;;;0.87;;
11211;SDS011;5663;50.864;12.096;2023-04-24T08:38:17;1.57;;;0.80;;
11211;SDS011;5663;50.864;12.096;2023-04-24T08:40:45;4.27;;;0.90;;
11211;SDS011;5663;50.864;12.096;2023-04-24T08:43:17;1.07;;;0.80;;
11211;SDS011;5663;50.864;12.096;2023-04-24T08:45:45;1.57;;;0.90;;
11211;SDS011;5663;50.864;12.096;2023-04-24T08:48:13;1.67;;;0.77;;
11211;SDS011;5663;50.864;12.096;2023-04-24T08:50:42;1.63;;;0.80;;
11211;SDS011;5663;50.864;12.096;2023-04-24T08:53:10;1.03;;;0.80;;
11211;SDS011;5663;50.864;12.096;2023-04-24T08:55:38;3.13;;;1.00;;
11211;SDS011;5663;50.864;12.096;2023-04-24T08:58:08;1.80;;;0.90;;
11211;SDS011;5663;50.864;12.096;2023-04-24T09:00:37;2.80;;;0.97;;
11211;SDS011;5663;50.864;12.096;2023-04-24T09:03:10;4.30;;;1.40;;
11211;SDS011;5663;50.864;12.096;2023-04-24T09:05:37;3.20;;;1.20;;
11211;SDS011;5663;50.864;12.096;2023-04-24T09:08:06;2.43;;;1.07;;
11211;SDS011;5663;50.864;12.096;2023-04-24T09:10:36;2.43;;;1.00;;
11211;SDS011;5663;50.864;12.096;2023-04-24T09:13:04;2.23;;;1.23;;
11211;SDS011;5663;50.864;12.096;2023-04-24T09:15:35;3.73;;;1.10;;
11211;SDS011;5663;50.864;12.096;2023-04-24T09:18:04;1.10;;;0.87;;
11211;SDS011;5663;50.864;12.096;2023-04-24T09:20:33;2.90;;;1.23;;
11211;SDS011;5663;50.864;12.096;2023-04-24T09:23:02;1.10;;;1.00;;
11211;SDS011;5663;50.864;12.096;2023-04-24T09:25:32;3.60;;;1.10;;
11211;SDS011;5663;50.864;12.096;2023-04-24T09:28:04;3.13;;;1.10;;
11211;SDS011;5663;50.864;12.096;2023-04-24T09:30:33;1.87;;;1.10;;
11211;SDS011;5663;50.864;12.096;2023-04-24T09:33:12;3.03;;;1.20;;
11211;SDS011;5663;50.864;12.096;2023-04-24T09:35:41;2.63;;;1.10;;
11211;SDS011;5663;50.864;12.096;2023-04-24T09:38:10;2.67;;;1.10;;
11211;SDS011;5663;50.864;12.096;2023-04-24T09:40:40;0.80;;;0.80;;
11211;SDS011;5663;50.864;12.096;2023-04-24T09:43:09;1.77;;;1.07;;
11211;SDS011;5663;50.864;12.096;2023-04-24T09:45:38;1.00;;;0.87;;
11211;SDS011;5663;50.864;12.096;2023-04-24T09:48:08;3.03;;;0.90;;
11211;SDS011;5663;50.864;12.096;2023-04-24T09:50:39;2.00;;;1.07;;
11211;SDS011;5663;50.864;12.096;2023-04-24T09:53:12;1.57;;;0.87;;
11211;SDS011;5663;50.864;12.096;2023-04-24T09:55:42;1.00;;;0.90;;
11211;SDS011;5663;50.864;12.096;2023-04-24T09:58:14;1.63;;;1.00;;
11211;SDS011;5663;50.864;12.096;2023-04-24T10:00:42;3.90;;;1.03;;
11211;SDS011;5663;50.864;12.096;2023-04-24T10:03:10;2.87;;;1.17;;
11211;SDS011;5663;50.864;12.096;2023-04-24T10:05:39;1.30;;;1.10;;
11211;SDS011;5663;50.864;12.096;2023-04-24T10:08:10;3.40;;;1.00;;
11211;SDS011;5663;50.864;12.096;2023-04-24T10:10:39;4.20;;;1.10;;
11211;SDS011;5663;50.864;12.096;2023-04-24T10:13:09;1.23;;;1.00;;
11211;SDS011;5663;50.864;12.096;2023-04-24T10:15:38;4.40;;;1.30;;
11211;SDS011;5663;50.864;12.096;2023-04-24T10:18:07;4.13;;;1.20;;
11211;SDS011;5663;50.864;12.096;2023-04-24T10:20:37;3.63;;;1.03;;
11211;SDS011;5663;50.864;12.096;2023-04-24T10:23:08;1.20;;;1.10;;
11211;SDS011;5663;50.864;12.096;2023-04-24T10:25:36;5.77;;;1.47;;
11211;SDS011;5663;50.864;12.096;2023-04-24T10:28:04;1.53;;;1.13;;
11211;SDS011;5663;50.864;12.096;2023-04-24T10:30:33;1.77;;;1.20;;
11211;SDS011;5663;50.864;12.096;2023-04-24T10:33:02;2.20;;;1.00;;
11211;SDS011;5663;50.864;12.096;2023-04-24T10:35:32;1.27;;;1.10;;
11211;SDS011;5663;50.864;12.096;2023-04-24T10:38:02;2.37;;;1.10;;
11211;SDS011;5663;50.864;12.096;2023-04-24T10:40:35;2.57;;;1.30;;
11211;SDS011;5663;50.864;12.096;2023-04-24T10:43:03;1.10;;;1.00;;
11211;SDS011;5663;50.864;12.096;2023-04-24T10:45:32;4.80;;;1.23;;
11211;SDS011;5663;50.864;12.096;2023-04-24T10:48:00;2.30;;;0.90;;
11211;SDS011;5663;50.864;12.096;2023-04-24T10:50:41;2.80;;;1.20;;
11211;SDS011;5663;50.864;12.096;2023-04-24T10:53:14;5.03;;;1.40;;
11211;SDS011;5663;50.864;12.096;2023-04-24T10:55:46;1.60;;;1.27;;
11211;SDS011;5663;50.864;12.096;2023-04-24T10:58:15;8.80;;;1.60;;
11211;SDS011;5663;50.864;12.096;2023-04-24T11:00:43;4.80;;;1.40;;
11211;SDS011;5663;50.864;12.096;2023-04-24T11:03:25;1.20;;;1.03;;
11211;SDS011;5663;50.864;12.096;2023-04-24T11:06:01;10.20;;;2.03;;
11211;SDS011;5663;50.864;12.096;2023-04-24T11:08:37;1.63;;;1.20;;
11211;SDS011;5663;50.864;12.096;2023-04-24T11:11:12;1.53;;;0.90;;
11211;SDS011;5663;50.864;12.096;2023-04-24T11:14:03;3.63;;;1.27;;
11211;SDS011;5663;50.864;12.096;2023-04-24T11:16:50;3.77;;;1.30;;
11211;SDS011;5663;50.864;12.096;2023-04-24T11:19:22;2.67;;;1.33;;
11211;SDS011;5663;50.864;12.096;2023-04-24T11:21:57;3.30;;;1.50;;
11211;SDS011;5663;50.864;12.096;2023-04-24T11:24:30;1.93;;;1.13;;
11211;SDS011;5663;50.864;12.096;2023-04-24T11:27:12;2.40;;;1.23;;
11211;SDS011;5663;50.864;12.096;2023-04-24T11:29:47;1.90;;;1.10;;
11211;SDS011;5663;50.864;12.096;2023-04-24T11:32:17;3.27;;;1.20;;
11211;SDS011;5663;50.864;12.096;2023-04-24T11:34:51;1.90;;;1.13;;
11211;SDS011;5663;50.864;12.096;2023-04-24T11:37:20;1.50;;;1.30;;
11211;SDS011;5663;50.864;12.096;2023-04-24T11:39:50;1.63;;;1.13;;
11211;SDS011;5663;50.864;12.096;2023-04-24T11:42:36;4.97;;;1.50;;
11211;SDS011;5663;50.864;12.096;2023-04-24T11:45:07;1.43;;;1.10;;
11211;SDS011;5663;50.864;12.096;2023-04-24T11:47:36;2.83;;;1.73;;
11211;SDS011;5663;50.864;12.096;2023-04-24T11:50:05;1.13;;;1.03;;
11211;SDS011;5663;50.864;12.096;2023-04-24T11:52:36;3.70;;;1.50;;
11211;SDS011;5663;50.864;12.096;2023-04-24T11:55:06;4.33;;;1.40;;
11211;SDS011;5663;50.864;12.096;2023-04-24T11:57:37;1.70;;;1.10;;
11211;SDS011;5663;50.864;12.096;2023-04-24T12:00:14;2.13;;;1.33;;
11211;SDS011;5663;50.864;12.096;2023-04-24T12:02:44;3.03;;;1.20;;
11211;SDS011;5663;50.864;12.096;2023-04-24T12:05:18;3.13;;;1.53;;
11211;SDS011;5663;50.864;12.096;2023-04-24T12:07:47;4.07;;;1.60;;
11211;SDS011;5663;50.864;12.096;2023-04-24T12:10:27;1.37;;;1.10;;
11211;SDS011;5663;50.864;12.096;2023-04-24T12:12:59;3.30;;;1.47;;
11211;SDS011;5663;50.864;12.096;2023-04-24T12:15:28;1.23;;;1.00;;
11211;SDS011;5663;50.864;12.096;2023-04-24T12:17:57;1.80;;;1.30;;
11211;SDS011;5663;50.864;12.096;2023-04-24T12:20:28;4.83;;;1.23;;
11211;SDS011;5663;50.864;12.096;2023-04-24T12:22:59;2.23;;;1.30;;
11211;SDS011;5663;50.864;12.096;2023-04-24T12:25:31;7.03;;;2.00;;
11211;SDS011;5663;50.864;12.096;2023-04-24T12:28:11;3.20;;;1.40;;
11211;SDS011;5663;50.864;12.096;2023-04-24T12:30:40;2.63;;;1.43;;
11211;SDS011;5663;50.864;12.096;2023-04-24T12:33:11;2.70;;;1.30;;
11211;SDS011;5663;50.864;12.096;2023-04-24T12:35:40;5.97;;;1.90;;
11211;SDS011;5663;50.864;12.096;2023-04-24T12:38:10;1.80;;;1.20;;
11211;SDS011;5663;50.864;12.096;2023-04-24T12:40:41;1.37;;;1.00;;
11211;SDS011;5663;50.864;12.096;2023-04-24T12:43:18;1.23;;;1.00;;
11211;SDS011;5663;50.864;12.096;2023-04-24T12:45:47;1.97;;;1.10;;
11211;SDS011;5663;50.864;12.096;2023-04-24T12:48:16;7.33;;;1.40;;
11211;SDS011;5663;50.864;12.096;2023-04-24T12:50:45;1.00;;;1.00;;
11211;SDS011;5663;50.864;12.096;2023-04-24T12:53:14;4.03;;;1.40;;
11211;SDS011;5663;50.864;12.096;2023-04-24T12:55:44;1.00;;;1.00;;
11211;SDS011;5663;50.864;12.096;2023-04-24T12:58:14;1.47;;;1.27;;
11211;SDS011;5663;50.864;12.096;2023-04-24T13:00:48;4.83;;;1.30;;
11211;SDS011;5663;50.864;12.096;2023-04-24T13:03:17;1.00;;;1.00;;
11211;SDS011;5663;50.864;12.096;2023-04-24T13:05:49;3.37;;;1.30;;
11211;SDS011;5663;50.864;12.096;2023-04-24T13:08:19;3.90;;;1.20;;
11211;SDS011;5663;50.864;12.096;2023-04-24T13:10:48;2.43;;;1.30;;
11211;SDS011;5663;50.864;12.096;2023-04-24T13:13:19;2.60;;;1.50;;
11211;SDS011;5663;50.864;12.096;2023-04-24T13:15:49;2.53;;;1.30;;
11211;SDS011;5663;50.864;12.096;2023-04-24T13:18:17;2.27;;;1.40;;
11211;SDS011;5663;50.864;12.096;2023-04-24T13:20:46;1.77;;;1.40;;
11211;SDS011;5663;50.864;12.096;2023-04-24T13:23:17;4.93;;;1.30;;
11211;SDS011;5663;50.864;12.096;2023-04-24T13:25:46;1.93;;;1.33;;
11211;SDS011;5663;50.864;12.096;2023-04-24T13:28:15;2.87;;;1.30;;
11211;SDS011;5663;50.864;12.096;2023-04-24T13:30:43;1.20;;;1.10;;
11211;SDS011;5663;50.864;12.096;2023-04-24T13:33:17;1.40;;;1.23;;
11211;SDS011;5663;50.864;12.096;2023-04-24T13:35:45;2.43;;;1.40;;
11211;SDS011;5663;50.864;12.096;2023-04-24T13:38:14;1.93;;;1.43;;
11211;SDS011;5663;50.864;12.096;2023-04-24T13:40:43;4.23;;;1.43;;
11211;SDS011;5663;50.864;12.096;2023-04-24T13:43:12;3.60;;;1.40;;
11211;SDS011;5663;50.864;12.096;2023-04-24T13:45:42;1.30;;;1.20;;
11211;SDS011;5663;50.864;12.096;2023-04-24T13:48:14;2.50;;;1.10;;
11211;SDS011;5663;50.864;12.096;2023-04-24T13:50:43;1.80;;;1.20;;
11211;SDS011;5663;50.864;12.096;2023-04-24T13:53:15;1.13;;;1.03;;
11211;SDS011;5663;50.864;12.096;2023-04-24T13:55:44;1.20;;;1.10;;
11211;SDS011;5663;50.864;12.096;2023-04-24T13:58:12;2.37;;;1.20;;
11211;SDS011;5663;50.864;12.096;2023-04-24T14:00:41;14.17;;;1.13;;
11211;SDS011;5663;50.864;12.096;2023-04-24T14:03:14;1.60;;;0.97;;
11211;SDS011;5663;50.864;12.096;2023-04-24T14:05:42;3.80;;;1.33;;
11211;SDS011;5663;50.864;12.096;2023-04-24T14:08:09;2.40;;;1.37;;
11211;SDS011;5663;50.864;12.096;2023-04-24T14:10:38;1.23;;;1.13;;
11211;SDS011;5663;50.864;12.096;2023-04-24T14:13:05;4.30;;;1.30;;
11211;SDS011;5663;50.864;12.096;2023-04-24T14:15:35;3.70;;;1.60;;
11211;SDS011;5663;50.864;12.096;2023-04-24T14:18:08;2.17;;;1.77;;
11211;SDS011;5663;50.864;12.096;2023-04-24T14:20:37;2.63;;;1.37;;
11211;SDS011;5663;50.864;12.096;2023-04-24T14:23:07;1.40;;;1.30;;
11211;SDS011;5663;50.864;12.096;2023-04-24T14:25:35;1.53;;;1.23;;
11211;SDS011;5663;50.864;12.096;2023-04-24T14:28:07;3.03;;;1.47;;
11211;SDS011;5663;50.864;12.096;2023-04-24T14:30:40;3.67;;;1.57;;
11211;SDS011;5663;50.864;12.096;2023-04-24T14:33:11;2.30;;;1.13;;
11211;SDS011;5663;50.864;12.096;2023-04-24T14:35:41;1.73;;;1.40;;
11211;SDS011;5663;50.864;12.096;2023-04-24T14:38:10;1.93;;;1.33;;
11211;SDS011;5663;50.864;12.096;2023-04-24T14:40:39;2.57;;;1.40;;
11211;SDS011;5663;50.864;12.096;2023-04-24T14:43:07;4.80;;;1.53;;
11211;SDS011;5663;50.864;12.096;2023-04-24T14:45:34;8.30;;;1.83;;
11211;SDS011;5663;50.864;12.096;2023-04-24T14:48:07;2.53;;;1.43;;
11211;SDS011;5663;50.864;12.096;2023-04-24T14:50:35;1.73;;;1.40;;
11211;SDS011;5663;50.864;12.096;2023-04-24T14:53:04;3.57;;;1.40;;
11211;SDS011;5663;50.864;12.096;2023-04-24T14:55:31;1.47;;;1.20;;
11211;SDS011;5663;50.864;12.096;2023-04-24T14:58:02;1.40;;;1.20;;
11211;SDS011;5663;50.864;12.096;2023-04-24T15:00:29;2.60;;;1.23;;
11211;SDS011;5663;50.864;12.096;2023-04-24T15:02:57;1.63;;;1.30;;
11211;SDS011;5663;50.864;12.096;2023-04-24T15:05:25;1.30;;;1.20;;
11211;SDS011;5663;50.864;12.096;2023-04-24T15:07:55;2.07;;;1.10;;